createdAt,value
2022-12-09T00:02:04.196Z,26.08
2022-12-09T00:04:31.779Z,27.67
2022-12-09T00:06:59.237Z,28.88
2022-12-09T00:09:26.554Z,28.85
2022-12-09T00:11:53.807Z,28.10
2022-12-09T00:14:21.037Z,27.90
2022-12-09T00:16:48.397Z,29.13
2022-12-09T00:19:15.782Z,28.05
2022-12-09T00:21:43.447Z,25.73
2022-12-09T00:24:14.259Z,27.33
2022-12-09T00:26:41.924Z,26.83
2022-12-09T00:29:11.771Z,29.33
2022-12-09T00:31:40.294Z,33.17
2022-12-09T00:34:12.606Z,42.90
2022-12-09T00:36:39.998Z,40.58
2022-12-09T00:39:07.174Z,36.30
2022-12-09T00:41:34.592Z,30.33
2022-12-09T00:44:02.381Z,27.75
2022-12-09T00:46:30.415Z,28.20
2022-12-09T00:48:58.231Z,31.08
2022-12-09T00:51:27.184Z,32.70
2022-12-09T00:53:56.411Z,31.20
2022-12-09T00:56:30.551Z,29.67
2022-12-09T00:59:00.350Z,27.70
2022-12-09T01:01:29.212Z,30.15
2022-12-09T01:03:57.686Z,29.80
2022-12-09T01:06:27.755Z,28.17
2022-12-09T01:08:55.503Z,28.48
2022-12-09T01:11:27.916Z,26.63
2022-12-09T01:13:58.498Z,24.77
2022-12-09T01:16:28.532Z,26.95
2022-12-09T01:18:59.923Z,24.88
2022-12-09T01:21:28.867Z,26.65
2022-12-09T01:23:56.512Z,26.63
2022-12-09T01:26:25.284Z,25.05
2022-12-09T01:28:55.424Z,24.35
2022-12-09T01:31:26.033Z,26.10
2022-12-09T01:33:56.396Z,24.90
2022-12-09T01:36:30.481Z,24.23
2022-12-09T01:39:00.243Z,24.42
2022-12-09T01:41:28.731Z,25.52
2022-12-09T01:44:16.403Z,23.75
2022-12-09T01:46:44.463Z,24.55
2022-12-09T01:49:20.940Z,24.75
2022-12-09T01:51:56.950Z,22.85
2022-12-09T01:54:26.164Z,22.73
2022-12-09T01:56:56.147Z,22.02
2022-12-09T01:59:24.922Z,22.83
2022-12-09T02:01:59.568Z,22.73
2022-12-09T02:04:30.222Z,21.63
2022-12-09T02:07:05.775Z,20.48
2022-12-09T02:09:33.397Z,18.90
2022-12-09T02:12:14.049Z,20.38
2022-12-09T02:14:50.581Z,18.35
2022-12-09T02:17:24.324Z,19.65
2022-12-09T02:20:19.851Z,19.17
2022-12-09T02:22:49.534Z,18.90
2022-12-09T02:25:37.020Z,19.60
2022-12-09T02:28:33.251Z,19.40
2022-12-09T02:31:27.336Z,17.80
2022-12-09T02:34:06.829Z,19.40
2022-12-09T02:36:49.917Z,18.20
2022-12-09T02:39:18.076Z,19.10
2022-12-09T02:41:49.571Z,18.30
2022-12-09T02:44:20.707Z,19.83
2022-12-09T02:46:49.956Z,17.58
2022-12-09T02:49:19.612Z,20.55
2022-12-09T02:51:48.082Z,18.40
2022-12-09T02:54:18.197Z,19.40
2022-12-09T02:56:53.567Z,19.83
2022-12-09T02:59:21.664Z,20.85
2022-12-09T03:02:05.643Z,21.02
2022-12-09T03:04:33.026Z,20.17
2022-12-09T03:07:39.003Z,20.25
2022-12-09T03:10:16.533Z,20.20
2022-12-09T03:12:51.295Z,22.13
2022-12-09T03:15:24.504Z,21.20
2022-12-09T03:17:54.213Z,23.15
2022-12-09T03:20:28.902Z,21.70
2022-12-09T03:23:03.894Z,20.63
2022-12-09T03:25:40.618Z,20.10
2022-12-09T03:28:19.906Z,20.70
2022-12-09T03:30:47.610Z,22.27
2022-12-09T03:33:18.042Z,21.02
2022-12-09T03:35:55.357Z,21.95
2022-12-09T03:38:27.087Z,22.70
2022-12-09T03:41:01.590Z,21.35
2022-12-09T03:45:58.452Z,20.67
2022-12-09T03:48:25.877Z,21.10
2022-12-09T03:51:01.740Z,21.02
2022-12-09T03:53:37.370Z,22.58
2022-12-09T03:56:13.661Z,21.58
2022-12-09T03:58:44.051Z,22.63
2022-12-09T04:01:12.099Z,21.75
2022-12-09T04:03:39.746Z,22.40
2022-12-09T04:06:07.470Z,23.42
2022-12-09T04:08:34.847Z,22.45
2022-12-09T04:11:02.169Z,21.85
2022-12-09T04:13:29.419Z,22.67
2022-12-09T04:15:56.803Z,20.17
2022-12-09T04:18:27.275Z,22.92
2022-12-09T04:20:54.627Z,21.30
2022-12-09T04:23:22.183Z,21.73
2022-12-09T04:25:49.931Z,22.55
2022-12-09T04:28:17.255Z,23.52
2022-12-09T04:30:49.968Z,22.63
2022-12-09T04:33:17.187Z,21.20
2022-12-09T04:35:44.409Z,24.50
2022-12-09T04:38:13.010Z,21.75
2022-12-09T04:40:40.352Z,23.65
2022-12-09T04:43:07.769Z,25.10
2022-12-09T04:45:35.013Z,24.70
2022-12-09T04:48:02.191Z,24.15
2022-12-09T04:50:29.575Z,24.38
2022-12-09T04:52:56.721Z,23.77
2022-12-09T04:55:23.959Z,24.10
2022-12-09T04:57:51.495Z,24.60
2022-12-09T05:00:19.594Z,23.70
2022-12-09T05:02:46.950Z,22.08
2022-12-09T05:05:14.838Z,22.30
2022-12-09T05:07:42.395Z,23.83
2022-12-09T05:10:10.766Z,23.60
2022-12-09T05:12:38.268Z,23.27
2022-12-09T05:15:05.759Z,24.75
2022-12-09T05:17:33.088Z,21.98
2022-12-09T05:20:00.335Z,22.77
2022-12-09T05:22:27.773Z,24.02
2022-12-09T05:24:55.360Z,24.52
2022-12-09T05:27:23.481Z,23.55
2022-12-09T05:29:50.969Z,24.15
2022-12-09T05:32:18.789Z,24.48
2022-12-09T05:34:46.315Z,23.30
2022-12-09T05:37:16.033Z,23.35
2022-12-09T05:39:43.634Z,24.20
2022-12-09T05:42:11.122Z,24.95
2022-12-09T05:44:38.487Z,23.38
2022-12-09T05:47:06.048Z,24.42
2022-12-09T05:49:33.515Z,24.65
2022-12-09T05:52:01.457Z,24.23
2022-12-09T05:54:28.848Z,24.00
2022-12-09T05:56:58.165Z,26.02
2022-12-09T05:59:25.471Z,23.38
2022-12-09T06:01:53.966Z,23.92
2022-12-09T06:04:21.831Z,23.95
2022-12-09T06:06:49.222Z,25.13
2022-12-09T06:09:16.969Z,26.00
2022-12-09T06:11:44.488Z,25.15
2022-12-09T06:14:12.215Z,25.40
2022-12-09T06:16:39.752Z,26.02
2022-12-09T06:19:07.474Z,25.35
2022-12-09T06:21:34.735Z,26.33
2022-12-09T06:24:02.039Z,26.23
2022-12-09T06:26:30.686Z,26.73
2022-12-09T06:28:59.756Z,26.85
2022-12-09T06:31:28.467Z,25.70
2022-12-09T06:33:58.054Z,25.67
2022-12-09T06:36:28.235Z,24.55
2022-12-09T06:38:57.553Z,24.98
2022-12-09T06:41:25.371Z,25.35
2022-12-09T06:43:52.754Z,26.20
2022-12-09T06:46:25.037Z,25.60
2022-12-09T06:48:53.885Z,25.83
2022-12-09T06:51:23.048Z,25.23
2022-12-09T06:53:50.777Z,27.08
2022-12-09T06:56:18.581Z,25.48
2022-12-09T06:58:47.467Z,25.33
2022-12-09T07:01:20.923Z,25.27
2022-12-09T07:03:51.353Z,24.23
2022-12-09T07:06:31.064Z,25.58
2022-12-09T07:09:01.210Z,25.85
2022-12-09T07:11:29.564Z,26.88
2022-12-09T07:13:57.595Z,27.10
2022-12-09T07:16:25.224Z,29.10
2022-12-09T07:18:53.632Z,29.70
2022-12-09T07:21:22.158Z,27.55
2022-12-09T07:23:49.966Z,28.65
2022-12-09T07:26:18.367Z,28.45
2022-12-09T07:28:50.607Z,28.67
2022-12-09T07:31:21.442Z,29.40
2022-12-09T07:33:49.848Z,29.23
2022-12-09T07:36:21.244Z,32.90
2022-12-09T07:38:54.699Z,33.78
2022-12-09T07:41:22.505Z,33.78
2022-12-09T07:43:49.858Z,32.28
2022-12-09T07:46:19.120Z,32.22
2022-12-09T07:48:47.218Z,31.90
2022-12-09T07:51:15.748Z,32.72
2022-12-09T07:53:43.187Z,33.53
2022-12-09T07:56:12.559Z,32.45
2022-12-09T07:58:39.810Z,33.35
2022-12-09T08:01:13.462Z,33.08
2022-12-09T08:03:42.564Z,34.30
2022-12-09T08:06:18.278Z,32.55
2022-12-09T08:08:46.439Z,33.70
2022-12-09T08:11:22.369Z,34.13
2022-12-09T08:13:50.360Z,30.95
2022-12-09T08:16:20.601Z,31.23
2022-12-09T08:18:49.758Z,31.67
2022-12-09T08:21:21.259Z,37.50
2022-12-09T08:23:49.349Z,33.70
2022-12-09T08:26:18.654Z,31.75
2022-12-09T08:28:46.062Z,30.40
2022-12-09T08:31:17.692Z,28.67
2022-12-09T08:33:45.747Z,29.40
2022-12-09T08:36:25.531Z,28.52
2022-12-09T08:38:53.728Z,28.70
2022-12-09T08:41:35.855Z,28.45
2022-12-09T08:44:04.768Z,29.00
2022-12-09T08:46:33.927Z,29.00
2022-12-09T08:49:04.360Z,32.25
2022-12-09T08:51:32.578Z,32.78
2022-12-09T08:54:01.031Z,33.50
2022-12-09T08:56:29.155Z,31.92
2022-12-09T08:58:57.256Z,31.33
2022-12-09T09:01:32.318Z,26.55
2022-12-09T09:04:06.410Z,27.42
2022-12-09T09:06:34.629Z,27.05
2022-12-09T09:09:03.045Z,28.95
2022-12-09T09:11:30.832Z,27.80
2022-12-09T09:13:58.646Z,26.73
2022-12-09T09:16:27.447Z,26.40
2022-12-09T09:18:55.362Z,23.73
2022-12-09T09:21:24.965Z,24.80
2022-12-09T09:23:52.805Z,25.02
2022-12-09T09:26:23.771Z,23.52
2022-12-09T09:28:51.840Z,24.42
2022-12-09T09:31:22.387Z,24.75
2022-12-09T09:33:50.965Z,22.67
2022-12-09T09:36:21.820Z,24.95
2022-12-09T09:38:50.048Z,23.80
2022-12-09T09:41:21.004Z,21.30
2022-12-09T09:43:48.544Z,22.00
2022-12-09T09:46:22.452Z,22.42
2022-12-09T09:48:51.187Z,22.98
2022-12-09T09:51:20.638Z,24.50
2022-12-09T09:53:51.322Z,24.00
2022-12-09T09:56:46.502Z,22.60
2022-12-09T09:59:26.315Z,23.13
2022-12-09T10:02:12.441Z,23.95
2022-12-09T10:04:56.628Z,27.83
2022-12-09T10:07:43.829Z,26.13
2022-12-09T10:10:29.520Z,26.60
2022-12-09T10:13:05.069Z,27.20
2022-12-09T10:16:09.634Z,29.20
2022-12-09T10:18:41.171Z,26.20
2022-12-09T10:21:20.831Z,27.15
2022-12-09T10:23:49.991Z,25.15
2022-12-09T10:26:32.025Z,27.35
2022-12-09T10:29:16.175Z,26.77
2022-12-09T10:31:43.633Z,24.67
2022-12-09T10:34:12.629Z,25.63
2022-12-09T10:36:45.251Z,24.95
2022-12-09T10:39:20.390Z,26.65
2022-12-09T10:42:14.100Z,25.00
2022-12-09T10:44:41.781Z,22.38
2022-12-09T10:47:27.211Z,19.58
2022-12-09T10:49:55.763Z,22.10
2022-12-09T10:52:30.523Z,18.70
2022-12-09T10:54:58.776Z,17.92
2022-12-09T10:57:29.175Z,18.30
2022-12-09T11:00:08.668Z,19.27
2022-12-09T11:02:36.583Z,20.15
2022-12-09T11:05:25.330Z,17.05
2022-12-09T11:07:54.348Z,21.30
2022-12-09T11:10:27.985Z,23.25
2022-12-09T11:13:05.267Z,18.70
2022-12-09T11:15:42.931Z,19.73
2022-12-09T11:18:27.574Z,19.35
2022-12-09T11:20:58.141Z,20.13
2022-12-09T11:23:26.268Z,19.77
2022-12-09T11:26:01.049Z,19.40
2022-12-09T11:28:30.173Z,17.88
2022-12-09T11:31:34.222Z,19.25
2022-12-09T11:34:24.399Z,18.73
2022-12-09T11:36:54.649Z,18.45
2022-12-09T11:39:31.458Z,18.48
2022-12-09T11:42:17.567Z,19.75
2022-12-09T11:44:52.541Z,18.42
2022-12-09T11:50:37.034Z,17.92
2022-12-09T11:53:17.730Z,17.65
2022-12-09T11:56:04.210Z,16.90
2022-12-09T11:58:36.810Z,17.55
2022-12-09T12:01:10.028Z,17.70
2022-12-09T12:03:47.517Z,18.40
2022-12-09T12:06:23.302Z,19.08
2022-12-09T12:09:00.520Z,19.00
2022-12-09T12:11:31.582Z,16.88
2022-12-09T12:14:04.674Z,16.55
2022-12-09T12:16:52.565Z,16.05
2022-12-09T12:19:35.497Z,15.73
2022-12-09T12:22:26.516Z,15.98
2022-12-09T12:25:05.405Z,19.23
2022-12-09T12:27:57.275Z,17.67
2022-12-09T12:30:46.738Z,17.75
2022-12-09T12:36:53.425Z,17.20
2022-12-09T12:39:29.360Z,16.02
2022-12-09T12:42:14.597Z,17.17
2022-12-09T12:45:25.329Z,15.50
2022-12-09T12:48:13.467Z,17.40
2022-12-09T12:51:09.595Z,17.88
2022-12-09T12:53:50.644Z,17.48
2022-12-09T12:56:27.189Z,18.80
2022-12-09T12:59:31.351Z,18.45
2022-12-09T13:02:18.704Z,20.58
2022-12-09T13:04:58.885Z,21.35
2022-12-09T13:07:41.400Z,20.73
2022-12-09T13:10:18.221Z,19.95
2022-12-09T13:12:57.164Z,21.60
2022-12-09T13:15:32.455Z,22.13
2022-12-09T13:18:13.127Z,20.58
2022-12-09T13:20:49.809Z,19.98
2022-12-09T13:23:17.313Z,21.40
2022-12-09T13:26:11.667Z,22.27
2022-12-09T13:29:05.426Z,22.93
2022-12-09T13:31:36.470Z,22.05
2022-12-09T13:34:28.385Z,22.67
2022-12-09T13:36:55.592Z,21.63
2022-12-09T13:39:41.563Z,20.60
2022-12-09T13:42:46.675Z,20.33
2022-12-09T13:45:36.160Z,20.85
2022-12-09T13:48:26.125Z,20.63
2022-12-09T13:50:56.176Z,19.70
2022-12-09T13:53:46.067Z,20.98
2022-12-09T13:56:16.983Z,20.33
2022-12-09T13:59:21.704Z,21.00
2022-12-09T14:01:50.428Z,21.57
2022-12-09T14:04:25.989Z,22.15
2022-12-09T14:06:56.038Z,22.40
2022-12-09T14:09:41.208Z,21.95
2022-12-09T14:12:13.243Z,21.45
2022-12-09T14:15:04.216Z,22.48
2022-12-09T14:17:31.345Z,22.85
2022-12-09T14:20:16.391Z,22.95
2022-12-09T14:23:15.753Z,23.73
2022-12-09T14:25:56.757Z,23.63
2022-12-09T14:28:36.295Z,22.50
2022-12-09T14:31:08.663Z,23.38
2022-12-09T14:33:44.622Z,22.17
2022-12-09T14:36:14.987Z,19.92
2022-12-09T14:39:24.061Z,19.83
2022-12-09T14:41:58.741Z,20.27
2022-12-09T14:44:53.749Z,20.70
2022-12-09T14:47:31.084Z,19.60
2022-12-09T14:50:08.782Z,18.83
2022-12-09T14:52:36.212Z,19.85
2022-12-09T14:55:06.922Z,18.00
2022-12-09T14:57:43.064Z,19.20
2022-12-09T15:00:29.151Z,19.13
2022-12-09T15:03:30.562Z,20.27
2022-12-09T15:06:06.108Z,19.25
2022-12-09T15:08:37.357Z,19.60
2022-12-09T15:11:10.336Z,19.38
2022-12-09T15:13:40.740Z,19.52
2022-12-09T15:16:15.267Z,19.25
2022-12-09T15:18:44.725Z,20.20
2022-12-09T15:21:28.616Z,20.92
2022-12-09T15:23:57.427Z,20.47
2022-12-09T15:26:30.619Z,19.98
2022-12-09T15:29:01.502Z,21.13
2022-12-09T15:31:31.028Z,21.25
2022-12-09T15:34:15.759Z,22.13
2022-12-09T15:36:54.745Z,23.13
2022-12-09T15:39:46.727Z,22.25
2022-12-09T15:42:23.187Z,25.10
2022-12-09T15:44:55.682Z,26.88
2022-12-09T15:47:22.851Z,28.73
2022-12-09T15:50:03.884Z,29.38
2022-12-09T15:52:38.968Z,28.77
2022-12-09T15:55:10.411Z,28.00
2022-12-09T15:57:38.452Z,29.45
2022-12-09T16:00:06.574Z,28.55
2022-12-09T16:02:37.775Z,29.67
2022-12-09T16:05:08.013Z,30.10
2022-12-09T16:07:35.674Z,29.73
2022-12-09T16:10:16.810Z,30.70
2022-12-09T16:12:44.648Z,27.95
2022-12-09T16:15:14.745Z,32.60
2022-12-09T16:17:56.746Z,30.73
2022-12-09T16:20:36.299Z,29.85
2022-12-09T16:23:06.259Z,33.45
2022-12-09T16:25:42.764Z,31.20
2022-12-09T16:28:21.594Z,31.63
2022-12-09T16:30:50.852Z,29.75
2022-12-09T16:33:21.090Z,33.20
2022-12-09T16:36:03.689Z,32.80
2022-12-09T16:38:33.844Z,33.20
2022-12-09T16:41:05.077Z,33.45
2022-12-09T16:43:33.015Z,34.03
2022-12-09T16:46:21.391Z,35.83
2022-12-09T16:48:49.581Z,35.40
2022-12-09T16:51:20.391Z,33.47
2022-12-09T16:53:51.299Z,34.63
2022-12-09T16:56:25.097Z,33.72
2022-12-09T16:58:53.608Z,38.17
2022-12-09T17:01:25.528Z,36.05
2022-12-09T17:04:00.553Z,38.00
2022-12-09T17:06:28.469Z,37.75
2022-12-09T17:08:55.720Z,38.45
2022-12-09T17:11:22.974Z,37.65
2022-12-09T17:13:50.632Z,41.50
2022-12-09T17:16:22.047Z,41.15
2022-12-09T17:18:49.956Z,40.83
2022-12-09T17:21:17.896Z,40.35
2022-12-09T17:23:45.425Z,40.72
2022-12-09T17:26:15.300Z,41.53
2022-12-09T17:28:43.851Z,41.08
2022-12-09T17:31:17.406Z,41.70
2022-12-09T17:33:44.982Z,43.90
2022-12-09T17:36:13.757Z,40.40
2022-12-09T17:38:41.367Z,41.22
2022-12-09T17:41:13.538Z,40.55
2022-12-09T17:43:41.147Z,41.05
2022-12-09T17:46:09.813Z,41.10
2022-12-09T17:48:37.340Z,39.53
2022-12-09T17:51:07.340Z,40.20
2022-12-09T17:53:38.992Z,41.65
2022-12-09T17:56:11.681Z,43.17
2022-12-09T17:58:39.473Z,42.85
2022-12-09T18:01:14.446Z,39.88
2022-12-09T18:03:59.408Z,40.90
2022-12-09T18:06:34.515Z,42.78
2022-12-09T18:09:03.768Z,42.58
2022-12-09T18:11:31.071Z,44.55
2022-12-09T18:13:58.954Z,41.70
2022-12-09T18:16:26.179Z,42.22
2022-12-09T18:18:53.410Z,42.45
2022-12-09T18:21:20.749Z,43.58
2022-12-09T18:23:48.662Z,41.80
2022-12-09T18:26:18.083Z,43.72
2022-12-09T18:28:45.764Z,42.97
2022-12-09T18:31:15.933Z,45.28
2022-12-09T18:33:43.778Z,42.20
2022-12-09T18:36:14.329Z,40.67
2022-12-09T18:38:42.344Z,40.53
2022-12-09T18:41:20.880Z,42.10
2022-12-09T18:43:50.757Z,41.25
2022-12-09T18:46:29.116Z,42.67
2022-12-09T18:49:01.090Z,42.95
2022-12-09T18:51:29.003Z,43.10
2022-12-09T18:53:58.799Z,43.38
2022-12-09T18:56:26.889Z,42.65
2022-12-09T18:59:10.999Z,41.75
2022-12-09T19:01:41.557Z,41.60
2022-12-09T19:04:16.308Z,44.60
2022-12-09T19:06:45.696Z,42.85
2022-12-09T19:09:18.891Z,40.75
2022-12-09T19:11:47.488Z,42.00
2022-12-09T19:14:17.699Z,42.97
2022-12-09T19:16:45.681Z,43.35
2022-12-09T19:19:15.040Z,42.03
2022-12-09T19:21:43.134Z,41.20
2022-12-09T19:24:21.967Z,40.83
2022-12-09T19:26:49.314Z,41.83
2022-12-09T19:29:17.850Z,42.38
2022-12-09T19:31:47.868Z,42.92
2022-12-09T19:34:27.122Z,43.13
2022-12-09T19:36:56.399Z,40.72
2022-12-09T19:39:26.999Z,40.00
2022-12-09T19:41:54.157Z,40.55
2022-12-09T19:44:44.324Z,42.95
2022-12-09T19:47:10.268Z,42.53
2022-12-09T19:49:37.853Z,41.95
2022-12-09T19:52:05.025Z,43.75
2022-12-09T19:54:32.120Z,43.13
2022-12-09T19:56:59.462Z,42.88
2022-12-09T19:59:27.451Z,44.25
2022-12-09T20:01:54.973Z,44.80
2022-12-09T20:07:11.165Z,43.80
2022-12-09T20:09:39.964Z,44.90
2022-12-09T20:12:07.277Z,48.15
2022-12-09T20:14:34.531Z,46.67
2022-12-09T20:17:01.944Z,48.75
2022-12-09T20:19:29.136Z,48.97
2022-12-09T20:21:56.298Z,48.83
2022-12-09T20:24:23.533Z,47.05
2022-12-09T20:26:50.800Z,47.60
2022-12-09T20:29:18.007Z,46.50
2022-12-09T20:31:45.229Z,50.92
2022-12-09T20:34:15.247Z,47.85
2022-12-09T20:36:44.227Z,49.92
2022-12-09T20:39:15.245Z,49.92
2022-12-09T20:41:43.750Z,50.90
2022-12-09T20:44:12.303Z,52.13
2022-12-09T20:46:40.952Z,50.03
2022-12-09T20:49:08.250Z,53.50
2022-12-09T20:51:38.079Z,53.08
2022-12-09T20:54:06.564Z,53.88
2022-12-09T20:56:34.357Z,53.85
2022-12-09T20:59:01.601Z,52.53
2022-12-09T21:01:33.912Z,49.90
2022-12-09T21:04:02.318Z,54.15
2022-12-09T21:06:32.838Z,51.72
2022-12-09T21:09:05.541Z,56.85
2022-12-09T21:11:33.008Z,55.28
2022-12-09T21:14:03.875Z,55.70
2022-12-09T21:16:42.646Z,53.30
2022-12-09T21:19:13.932Z,51.40
2022-12-09T21:21:43.565Z,52.70
2022-12-09T21:24:12.107Z,56.45
2022-12-09T21:26:40.303Z,55.42
2022-12-09T21:29:08.454Z,57.10
2022-12-09T21:31:37.565Z,55.13
2022-12-09T21:34:06.867Z,54.60
2022-12-09T21:36:39.974Z,52.20
2022-12-09T21:39:07.432Z,56.15
2022-12-09T21:41:36.715Z,53.72
2022-12-09T21:44:04.805Z,56.67
2022-12-09T21:46:34.404Z,57.00
2022-12-09T21:49:04.279Z,57.25
2022-12-09T21:51:32.725Z,57.17
2022-12-09T21:54:00.133Z,59.30
2022-12-09T21:56:30.797Z,57.35
2022-12-09T21:58:59.262Z,58.30
2022-12-09T22:01:29.461Z,56.88
2022-12-09T22:03:58.578Z,57.92
2022-12-09T22:06:27.604Z,58.67
2022-12-09T22:08:54.862Z,58.08
2022-12-09T22:11:28.304Z,53.35
2022-12-09T22:14:00.556Z,58.17
2022-12-09T22:16:30.739Z,56.15
2022-12-09T22:18:59.447Z,58.60
2022-12-09T22:21:29.495Z,56.55
2022-12-09T22:23:59.807Z,56.95
2022-12-09T22:26:27.744Z,55.40
2022-12-09T22:28:55.597Z,57.28
2022-12-09T22:31:28.638Z,57.10
2022-12-09T22:34:01.683Z,56.65
2022-12-09T22:36:29.093Z,56.50
2022-12-09T22:38:56.412Z,56.33
2022-12-09T22:41:26.516Z,57.28
2022-12-09T22:43:55.136Z,56.25
2022-12-09T22:46:28.411Z,56.60
2022-12-09T22:48:57.003Z,56.88
2022-12-09T22:51:26.554Z,58.20
2022-12-09T22:53:58.014Z,55.70
2022-12-09T22:56:25.929Z,55.25
2022-12-09T22:58:53.565Z,55.22
2022-12-09T23:01:26.771Z,57.70
2022-12-09T23:03:57.690Z,54.42
2022-12-09T23:06:26.794Z,57.00
2022-12-09T23:08:54.127Z,54.75
2022-12-09T23:11:23.962Z,54.92
2022-12-09T23:13:51.637Z,55.90
2022-12-09T23:16:21.769Z,54.22
2022-12-09T23:18:49.755Z,55.55
2022-12-09T23:21:23.396Z,53.72
2022-12-09T23:23:55.323Z,56.00
2022-12-09T23:26:25.773Z,55.78
2022-12-09T23:28:55.977Z,52.75
2022-12-09T23:31:25.950Z,55.03
2022-12-09T23:33:54.464Z,56.00
2022-12-09T23:36:23.004Z,54.72
2022-12-09T23:38:51.331Z,56.38
2022-12-09T23:41:20.380Z,54.45
2022-12-09T23:43:49.553Z,58.90
2022-12-09T23:46:19.451Z,57.25
2022-12-09T23:48:48.305Z,54.53
2022-12-09T23:51:22.726Z,53.33
2022-12-09T23:53:52.094Z,54.80
2022-12-09T23:56:21.597Z,57.28
2022-12-09T23:58:53.028Z,56.28
